Dauntless Aviation
Airports Europe United Kingdom
EGLC
LCY

London City

London, UNITED KINGDOM

Airport Info
Suggest Updated Information for this Airport

Location

Latitude / Longitude: 51°30'18"N / 0°3'12"E
  51°30.3'N / 0°3.21'E
  51.5050 / 0.0535

Nearby radio navigation aids

LCY CITY NDB on field.

Runway Information

Runway 10 /28

Dimensions: 4948 x 98 ft.
Surface: ASP
 
Runway 10
Runway 28
Latitude: 51.505528 51.504922
Longitude: 0.045753 0.064953
Elevation: 16 ft. 16 ft.
Runway true heading: 91.1 271.1
 

Instrument Procedures

  Control Zone and Control Area Chart
  Aircraft Parking/Docking Chart
  Aerodrome Chart

STARs (Standard Terminal Arrivals)

  STAR via SPEAR (Northwest)
  STAR via ALKIN (South)
  STAR via SPEAR (East)
  STAR via SPEAR (West)
  STAR via SPEAR (Alternate Holding at LOGAN and ALKIN)

IAPs (Instrument Approach Procedures)

  LOC/DME/NDB (L) Rwy 27 (Aircraft CAT A/B/C)
  Visual Approach Profile Rwy 27
  ILS (5.5°GP) /DME/NDB (L) Rwy 27 (Aircraft CAT A/B/C)
  Visual Approach Profile Rwy 09
  LOC/DME/NDB (L) Rwy 09
  ATC Surveillance Minimum Altitude Chart
  ILS (5.5°GP) /DME/NDB (L) Rwy 09 (Aircraft CAT A/B/C)

Departure Procedures

  SID DOVER/LYDD
  SID CLACTON
  SID SOUTHAMPTON
  SID BROOKMANS PARK/COMPTON
Satellite photo at:
Airport distance calculator
From:
Weather Reports

METAR

EGLC

EGLC 251050Z VRB02KT CAVOK 27/17 Q1015
EGKB
11.4nm S
EGKB 251050Z VRB05KT CAVOK 26/19 Q1016
EGWU
17.8nm W
EGWU 251050Z 10001KT CAVOK 24/17 Q1015 BLU NOSIG
EGLL
18.9nm SW
EGLL 251050Z AUTO VRB02KT 9999 NCD 24/17 Q1015
EGSS
23.5nm N
EGSS 251050Z AUTO VRB03KT 9999 NCD 26/18 Q1015
EGKK
23.8nm S
EGKK 251050Z VRB04KT CAVOK 27/19 Q1015

TAF

EGLC
TAF EGLC 250803Z 2509/2518 02007KT 9999 FEW045 PROB30 TEMPO 2512/2518 8000 SHRA
EGKB
11.4nm S
TAF EGKB 250803Z 2509/2518 06008KT 9999 FEW045 PROB30 TEMPO 2512/2518 8000 SHRA
EGWU
17.8nm W
TAF EGWU 250732Z 2509/2603 09008KT CAVOK PROB30 TEMPO 2600/2603 7000 TSRA BKN010CB
EGLL
18.9nm SW
TAF EGLL 250457Z 2506/2612 05005KT CAVOK PROB30 TEMPO 2506/2508 8000 PROB30 TEMPO 2512/2603 7000 SHRA BECMG 2520/2523 30010KT PROB30 TEMPO 2603/2607 7000 BKN008
EGSS
23.5nm N
TAF AMD EGSS 250727Z 2507/2612 02008KT 7000 FEW015 BECMG 2508/2511 9999 PROB30 TEMPO 2512/2524 8000 SHRA PROB40 TEMPO 2600/2607 8000 SHRA BKN008 BECMG 2606/2609 31010KT
EGKK
23.8nm S
TAF EGKK 250505Z 2506/2612 04005KT CAVOK PROB30 TEMPO 2506/2524 8000 SHRA BECMG 2600/2603 32010KT PROB30 TEMPO 2600/2608 8000 RA BKN008
Safelog

 

Dauntless Aviation

© 2007-2016 Dauntless Aviation, all rights reserved
Information provided via PilotNav comes from a variety of official and unofficial data sources. As errors are possible, do not use PilotNav for primary flight planning purposes. Verify any information that you receive via PilotNav with current and canonical charts and other official documents. The material in this database is subject to database copyrights held by Dauntless Aviation and may not be copied without the express permission of Dauntless Aviation - licenses for use of part of all of this data are available for purchase; enquire via the Dauntless Aviation helpdesk. A number of mechanisms and markers exist in the database to protect against and identify infringement / copyright. Automated queries against this website are stictly prohibited, and all activity is logged and analyzed.